createdAt,value
2022-11-08T07:56:20.595Z,0.40
2022-11-08T07:58:47.253Z,0.40
2022-11-08T08:01:13.907Z,0.30
2022-11-08T08:03:40.523Z,0.43
2022-11-08T08:06:07.123Z,0.50
2022-11-08T08:08:34.153Z,0.57
2022-11-08T08:11:01.707Z,0.50
2022-11-08T08:13:29.192Z,0.40
2022-11-08T08:16:00.738Z,0.55
2022-11-08T08:18:28.624Z,0.35
2022-11-08T08:20:55.718Z,0.30
2022-11-08T08:23:22.336Z,0.25
2022-11-08T08:25:49.421Z,0.30
2022-11-08T08:28:16.056Z,0.25
2022-11-08T08:30:42.664Z,0.40
2022-11-08T08:33:28.851Z,0.38
2022-11-08T08:35:56.455Z,0.40
2022-11-08T08:38:23.299Z,0.40
2022-11-08T08:40:50.865Z,0.40
2022-11-08T08:43:18.191Z,0.30
2022-11-08T08:45:45.534Z,0.30
2022-11-08T08:48:12.576Z,0.30
2022-11-08T08:50:39.722Z,0.28
2022-11-08T08:53:06.921Z,0.32
2022-11-08T08:55:37.002Z,0.20
2022-11-08T08:58:04.648Z,0.20
2022-11-08T09:03:18.512Z,0.20
2022-11-08T09:05:46.799Z,0.30
2022-11-08T09:08:15.759Z,0.20
2022-11-08T09:10:42.888Z,0.20
2022-11-08T09:13:09.947Z,0.45
2022-11-08T09:15:37.092Z,0.20
2022-11-08T09:18:04.070Z,0.30
2022-11-08T09:20:31.500Z,0.30
2022-11-08T09:23:04.529Z,0.20
2022-11-08T09:25:31.644Z,0.32
2022-11-08T09:27:58.298Z,0.38
2022-11-08T09:30:26.367Z,0.40
2022-11-08T09:33:02.063Z,0.22
2022-11-08T09:35:29.713Z,0.20
2022-11-08T09:37:56.943Z,0.40
2022-11-08T09:40:40.970Z,0.20
2022-11-08T09:43:52.902Z,0.20
2022-11-08T09:46:26.843Z,0.30
2022-11-08T09:48:55.146Z,0.20
2022-11-08T09:51:23.736Z,0.28
2022-11-08T09:53:59.552Z,0.22
2022-11-08T09:56:35.241Z,0.20
2022-11-08T09:59:22.564Z,0.30
2022-11-08T10:01:49.910Z,0.25
2022-11-08T10:04:21.086Z,0.25
2022-11-08T10:07:02.367Z,0.20
2022-11-08T10:09:48.704Z,0.20
2022-11-08T10:12:25.149Z,0.20
2022-11-08T10:14:54.322Z,0.20
2022-11-08T10:17:31.434Z,0.20
2022-11-08T10:20:02.307Z,0.20
2022-11-08T10:22:43.929Z,0.20
2022-11-08T10:25:22.938Z,0.20
2022-11-08T10:27:51.371Z,0.20
2022-11-08T10:30:18.438Z,0.13
2022-11-08T10:32:46.400Z,0.20
2022-11-08T10:35:13.447Z,0.20
2022-11-08T10:37:41.752Z,0.25
2022-11-08T10:40:41.763Z,0.30
2022-11-08T10:43:11.633Z,0.38
2022-11-08T10:45:38.288Z,0.25
2022-11-08T10:48:05.764Z,0.20
2022-11-08T10:50:38.327Z,0.30
2022-11-08T10:53:06.952Z,0.20
2022-11-08T10:55:38.508Z,0.25
2022-11-08T10:58:25.669Z,0.30
2022-11-08T11:01:22.724Z,0.20
2022-11-08T11:03:50.759Z,0.22
2022-11-08T11:06:30.621Z,0.38
2022-11-08T11:08:59.893Z,0.40
2022-11-08T11:11:32.112Z,0.30
2022-11-08T11:14:22.319Z,0.30
2022-11-08T11:16:53.759Z,0.28
2022-11-08T11:19:20.563Z,0.20
2022-11-08T11:21:49.685Z,0.40
2022-11-08T11:24:20.787Z,0.20
2022-11-08T11:26:57.182Z,0.30
2022-11-08T11:29:28.514Z,0.30
2022-11-08T11:31:55.944Z,0.30
2022-11-08T11:34:40.376Z,0.50
2022-11-08T11:37:10.636Z,0.20
2022-11-08T11:39:40.204Z,0.10
2022-11-08T11:42:39.339Z,0.70
2022-11-08T11:45:10.930Z,0.32
2022-11-08T11:47:55.887Z,0.35
2022-11-08T11:50:27.889Z,0.32
2022-11-08T11:52:56.558Z,0.30
2022-11-08T11:55:27.789Z,0.30
2022-11-08T11:58:14.995Z,0.30
2022-11-08T12:00:49.488Z,0.20
2022-11-08T12:03:36.044Z,0.35
2022-11-08T12:06:08.298Z,0.22
2022-11-08T12:08:56.827Z,0.32
2022-11-08T12:11:42.824Z,0.40
2022-11-08T12:14:33.866Z,0.50
2022-11-08T12:17:21.394Z,0.45
2022-11-08T12:20:26.852Z,0.30
2022-11-08T12:22:54.251Z,0.40
2022-11-08T12:25:32.596Z,0.38
2022-11-08T12:28:30.062Z,0.30
2022-11-08T12:31:19.962Z,0.40
2022-11-08T12:34:05.368Z,0.40
2022-11-08T12:36:41.593Z,0.28
2022-11-08T12:39:14.784Z,0.45
2022-11-08T12:41:58.915Z,0.50
2022-11-08T12:44:47.869Z,0.45
2022-11-08T12:47:30.025Z,0.50
2022-11-08T12:50:22.343Z,0.63
2022-11-08T12:52:58.252Z,0.60
2022-11-08T12:55:30.525Z,0.60
2022-11-08T12:57:59.315Z,0.50
2022-11-08T13:00:28.038Z,0.50
2022-11-08T13:03:16.542Z,0.60
2022-11-08T13:05:56.574Z,0.40
2022-11-08T13:08:27.553Z,0.32
2022-11-08T13:11:03.747Z,0.30
2022-11-08T13:13:35.629Z,0.47
2022-11-08T13:16:14.653Z,0.50
2022-11-08T13:18:44.830Z,0.38
2022-11-08T13:21:30.433Z,0.70
2022-11-08T13:24:09.798Z,0.63
2022-11-08T13:26:43.129Z,0.60
2022-11-08T13:29:25.118Z,0.68
2022-11-08T13:32:20.276Z,0.52
2022-11-08T13:35:22.234Z,0.50
2022-11-08T13:37:54.388Z,0.50
2022-11-08T13:40:29.316Z,0.80
2022-11-08T13:42:58.323Z,0.80
2022-11-08T13:45:31.779Z,0.52
2022-11-08T13:48:00.659Z,0.60
2022-11-08T13:50:31.398Z,0.50
2022-11-08T13:53:19.634Z,0.57
2022-11-08T13:55:46.723Z,0.50
2022-11-08T13:58:52.177Z,0.60
2022-11-08T14:01:18.835Z,0.60
2022-11-08T14:03:48.692Z,0.63
2022-11-08T14:06:24.171Z,0.60
2022-11-08T14:09:11.212Z,0.60
2022-11-08T14:11:41.307Z,0.50
2022-11-08T14:14:12.944Z,0.70
2022-11-08T14:16:48.180Z,0.50
2022-11-08T14:19:22.890Z,0.45
2022-11-08T14:21:56.089Z,0.70
2022-11-08T14:24:25.019Z,0.40
2022-11-08T14:26:52.482Z,0.70
2022-11-08T14:29:20.900Z,0.70
2022-11-08T14:31:48.162Z,0.77
2022-11-08T14:34:38.626Z,1.30
2022-11-08T14:37:13.613Z,0.80
2022-11-08T14:39:40.290Z,0.90
2022-11-08T14:42:18.372Z,0.70
2022-11-08T14:44:46.350Z,0.50
2022-11-08T14:47:31.044Z,0.80
2022-11-08T14:49:59.036Z,0.73
2022-11-08T14:52:30.734Z,0.77
2022-11-08T14:55:05.112Z,0.50
